createdAt,value
2022-11-29T00:01:39.280Z,7.30
2022-11-29T00:04:06.875Z,7.20
2022-11-29T00:06:36.044Z,7.20
2022-11-29T00:09:07.828Z,7.30
2022-11-29T00:11:55.990Z,7.20
2022-11-29T00:14:25.222Z,7.20
2022-11-29T00:17:02.650Z,7.30
2022-11-29T00:19:35.007Z,7.30
2022-11-29T00:22:03.749Z,7.30
2022-11-29T00:24:32.497Z,7.30
2022-11-29T00:27:00.744Z,7.20
2022-11-29T00:29:29.736Z,7.20
2022-11-29T00:31:57.331Z,7.20
2022-11-29T00:34:25.046Z,7.20
2022-11-29T00:36:52.677Z,7.20
2022-11-29T00:39:20.256Z,7.20
2022-11-29T00:41:47.883Z,7.20
2022-11-29T00:44:19.902Z,7.20
2022-11-29T00:46:49.172Z,7.20
2022-11-29T00:49:17.258Z,7.10
2022-11-29T00:51:45.255Z,7.20
2022-11-29T00:54:12.902Z,7.20
2022-11-29T00:56:40.475Z,7.20
2022-11-29T00:59:08.009Z,7.20
2022-11-29T01:01:35.636Z,7.20
2022-11-29T01:04:03.661Z,7.10
2022-11-29T01:06:31.205Z,7.10
2022-11-29T01:08:58.783Z,7.10
2022-11-29T01:11:28.044Z,7.10
2022-11-29T01:13:58.463Z,7.20
2022-11-29T01:16:28.344Z,7.20
2022-11-29T01:18:56.557Z,7.20
2022-11-29T01:21:24.789Z,7.10
2022-11-29T01:23:53.696Z,7.20
2022-11-29T01:26:24.641Z,7.20
2022-11-29T01:28:54.127Z,7.30
2022-11-29T01:31:35.955Z,7.30
2022-11-29T01:34:05.398Z,7.30
2022-11-29T01:36:36.129Z,7.30
2022-11-29T01:39:07.564Z,7.20
2022-11-29T01:41:37.555Z,7.30
2022-11-29T01:44:16.623Z,7.20
2022-11-29T01:46:46.857Z,7.20
2022-11-29T01:49:21.339Z,7.20
2022-11-29T01:51:52.808Z,7.30
2022-11-29T01:54:21.853Z,7.30
2022-11-29T01:56:51.785Z,7.30
2022-11-29T01:59:24.930Z,7.30
2022-11-29T02:01:53.069Z,7.30
2022-11-29T02:04:20.722Z,7.30
2022-11-29T02:06:48.405Z,7.30
2022-11-29T02:09:21.065Z,7.30
2022-11-29T02:11:48.579Z,7.30
2022-11-29T02:14:40.013Z,7.20
2022-11-29T02:17:51.093Z,7.20
2022-11-29T02:20:55.365Z,7.20
2022-11-29T02:23:51.984Z,7.10
2022-11-29T02:26:57.094Z,7.20
2022-11-29T02:30:02.522Z,7.10
2022-11-29T02:32:48.632Z,7.10
2022-11-29T02:35:34.549Z,7.10
2022-11-29T02:38:30.799Z,7.10
2022-11-29T02:41:13.296Z,7.10
2022-11-29T02:44:07.974Z,7.10
2022-11-29T02:47:02.639Z,7.20
2022-11-29T02:50:07.749Z,7.10
2022-11-29T02:53:13.142Z,7.10
2022-11-29T02:56:20.025Z,7.10
2022-11-29T02:58:51.751Z,7.20
2022-11-29T03:01:56.959Z,7.20
2022-11-29T03:04:28.002Z,7.20
2022-11-29T03:07:21.088Z,7.10
2022-11-29T03:10:26.676Z,7.20
2022-11-29T03:12:55.262Z,7.10
2022-11-29T03:15:41.722Z,7.20
2022-11-29T03:18:39.229Z,7.20
2022-11-29T03:21:50.271Z,7.10
2022-11-29T03:24:29.186Z,7.10
2022-11-29T03:27:06.758Z,7.20
2022-11-29T03:29:53.458Z,7.10
2022-11-29T03:32:28.894Z,7.20
2022-11-29T03:35:04.263Z,7.20
2022-11-29T03:37:52.574Z,7.20
2022-11-29T03:40:27.390Z,7.20
2022-11-29T03:43:12.975Z,7.20
2022-11-29T03:45:49.275Z,7.20
2022-11-29T03:48:29.309Z,7.20
2022-11-29T03:51:02.540Z,7.30
2022-11-29T03:53:47.795Z,7.20
2022-11-29T03:56:29.296Z,7.20
2022-11-29T03:59:21.208Z,7.20
2022-11-29T04:01:57.357Z,7.20
2022-11-29T04:05:01.630Z,7.20
2022-11-29T04:07:53.307Z,7.20
2022-11-29T04:10:51.695Z,7.10
2022-11-29T04:13:47.440Z,7.10
2022-11-29T04:17:00.430Z,7.20
2022-11-29T04:19:39.620Z,7.20
2022-11-29T04:22:15.431Z,7.20
2022-11-29T04:24:52.282Z,7.20
2022-11-29T04:27:57.394Z,7.20
2022-11-29T04:30:25.977Z,7.20
2022-11-29T04:33:24.210Z,7.20
2022-11-29T04:36:12.988Z,7.20
2022-11-29T04:39:01.806Z,7.20
2022-11-29T04:41:38.196Z,7.20
2022-11-29T04:44:10.413Z,7.20
2022-11-29T04:46:56.987Z,7.20
2022-11-29T04:50:09.771Z,7.20
2022-11-29T04:53:01.062Z,7.30
2022-11-29T04:55:48.084Z,7.30
2022-11-29T04:58:41.861Z,7.40
2022-11-29T05:01:15.339Z,7.50
2022-11-29T05:04:11.874Z,7.50
2022-11-29T05:07:03.769Z,7.50
2022-11-29T05:09:40.216Z,7.50
2022-11-29T05:12:35.410Z,7.60
2022-11-29T05:15:30.778Z,7.60
2022-11-29T05:18:35.708Z,7.60
2022-11-29T05:21:30.714Z,7.60
2022-11-29T05:24:04.057Z,7.60
2022-11-29T05:26:54.294Z,7.60
2022-11-29T05:29:31.329Z,7.70
2022-11-29T05:32:19.721Z,7.70
2022-11-29T05:35:13.767Z,7.60
2022-11-29T05:38:03.258Z,7.60
2022-11-29T05:41:12.197Z,7.60
2022-11-29T05:44:13.212Z,7.60
2022-11-29T05:47:00.706Z,7.60
2022-11-29T05:49:53.186Z,7.60
2022-11-29T05:52:35.481Z,7.60
2022-11-29T05:55:15.278Z,7.60
2022-11-29T05:57:56.940Z,7.60
2022-11-29T06:00:32.807Z,7.60
2022-11-29T06:03:06.501Z,7.70
2022-11-29T06:05:48.560Z,7.70
2022-11-29T06:08:34.949Z,7.70
2022-11-29T06:11:02.514Z,7.80
2022-11-29T06:13:37.481Z,7.70
2022-11-29T06:16:46.820Z,7.70
2022-11-29T06:19:33.246Z,7.80
2022-11-29T06:22:39.872Z,7.80
2022-11-29T06:25:10.351Z,7.80
2022-11-29T06:27:57.488Z,7.80
2022-11-29T06:30:51.745Z,7.80
2022-11-29T06:33:36.640Z,7.80
2022-11-29T06:36:04.130Z,7.90
2022-11-29T06:38:31.848Z,7.90
2022-11-29T06:41:02.023Z,7.90
2022-11-29T06:43:30.980Z,7.80
2022-11-29T06:46:24.667Z,7.80
2022-11-29T06:49:09.938Z,7.70
2022-11-29T06:51:52.343Z,7.70
2022-11-29T06:54:36.077Z,7.60
2022-11-29T06:57:21.345Z,7.50
2022-11-29T07:00:27.528Z,7.50
2022-11-29T07:03:22.417Z,7.50
2022-11-29T07:05:51.479Z,7.50
2022-11-29T07:08:25.367Z,7.50
2022-11-29T07:10:56.030Z,7.50
2022-11-29T07:13:24.446Z,7.40
2022-11-29T07:16:15.663Z,7.40
2022-11-29T07:18:57.755Z,7.30
2022-11-29T07:21:51.315Z,7.40
2022-11-29T07:24:38.159Z,7.40
2022-11-29T07:27:16.438Z,7.30
2022-11-29T07:30:17.232Z,7.30
2022-11-29T07:33:16.839Z,7.30
2022-11-29T07:36:00.375Z,7.30
2022-11-29T07:38:31.473Z,7.20
2022-11-29T07:41:29.364Z,7.20
2022-11-29T07:44:07.474Z,7.30
2022-11-29T07:47:04.861Z,7.30
2022-11-29T07:50:11.724Z,7.30
2022-11-29T07:53:04.533Z,7.30
2022-11-29T07:55:45.875Z,7.30
2022-11-29T08:04:58.033Z,7.40
2022-11-29T08:08:15.508Z,7.40
2022-11-29T08:14:05.208Z,7.50
2022-11-29T08:20:42.126Z,7.60
2022-11-29T08:30:14.746Z,7.70
2022-11-29T08:36:32.245Z,7.70
2022-11-29T08:42:29.027Z,7.70
2022-11-29T08:45:14.382Z,7.70
2022-11-29T08:48:32.445Z,7.80
2022-11-29T08:51:24.552Z,7.80
2022-11-29T08:54:13.581Z,7.80
2022-11-29T08:57:37.968Z,7.90
2022-11-29T08:59:53.876Z,7.90
2022-11-29T09:02:32.465Z,8.00
2022-11-29T09:05:39.756Z,7.90
2022-11-29T09:08:43.793Z,7.90
2022-11-29T09:14:28.042Z,7.90
2022-11-29T09:17:43.555Z,7.90
2022-11-29T09:20:25.967Z,8.00
2022-11-29T09:23:15.698Z,8.00
2022-11-29T09:26:08.906Z,8.00
2022-11-29T09:28:49.351Z,8.00
2022-11-29T09:34:34.373Z,8.20
2022-11-29T09:37:02.245Z,8.20
2022-11-29T09:39:30.570Z,8.20
2022-11-29T09:42:17.271Z,8.30
2022-11-29T09:45:10.061Z,8.30
2022-11-29T09:47:58.239Z,8.30
2022-11-29T09:50:34.570Z,8.30
2022-11-29T09:53:27.007Z,8.30
2022-11-29T09:56:35.802Z,8.30
2022-11-29T09:59:09.750Z,8.20
2022-11-29T10:02:03.053Z,8.30
2022-11-29T10:04:37.290Z,8.30
2022-11-29T10:07:24.987Z,8.30
2022-11-29T10:10:01.635Z,8.30
2022-11-29T10:12:41.617Z,8.40
2022-11-29T10:15:34.182Z,8.40
2022-11-29T10:18:12.855Z,8.50
2022-11-29T10:20:49.263Z,8.60
2022-11-29T10:23:24.363Z,8.60
2022-11-29T10:29:40.050Z,8.70
2022-11-29T10:32:27.650Z,8.80
2022-11-29T10:35:29.299Z,8.90
2022-11-29T10:38:46.245Z,8.90
2022-11-29T10:41:41.109Z,9.00
2022-11-29T10:44:37.103Z,9.10
2022-11-29T10:47:11.254Z,9.10
2022-11-29T10:49:42.277Z,9.20
2022-11-29T10:52:29.059Z,9.20
2022-11-29T10:54:59.966Z,9.30
2022-11-29T10:57:28.952Z,9.30
2022-11-29T11:00:09.093Z,9.40
2022-11-29T11:02:38.200Z,9.40
2022-11-29T11:05:19.186Z,9.50
2022-11-29T11:08:00.233Z,9.50
2022-11-29T11:10:32.964Z,9.50
2022-11-29T11:13:07.831Z,9.50
2022-11-29T11:15:36.932Z,9.50
2022-11-29T11:18:23.440Z,9.50
2022-11-29T11:21:21.046Z,9.50
2022-11-29T11:24:00.021Z,9.50
2022-11-29T11:26:43.103Z,9.50
2022-11-29T11:29:20.916Z,9.50
2022-11-29T11:32:00.169Z,9.50
2022-11-29T11:34:36.686Z,9.50
2022-11-29T11:37:22.695Z,9.50
2022-11-29T11:39:52.922Z,9.50
2022-11-29T11:42:38.425Z,9.50
2022-11-29T11:45:12.628Z,9.50
2022-11-29T11:47:49.950Z,9.50
2022-11-29T11:50:41.208Z,9.40
2022-11-29T11:53:30.276Z,9.40
2022-11-29T11:56:02.328Z,9.40
2022-11-29T11:58:47.962Z,9.40
2022-11-29T12:01:21.865Z,9.40
2022-11-29T12:04:06.514Z,9.40
2022-11-29T12:06:49.053Z,9.50
2022-11-29T12:09:57.301Z,9.50
2022-11-29T12:12:40.584Z,9.50
2022-11-29T12:15:17.834Z,9.50
2022-11-29T12:18:13.429Z,9.60
2022-11-29T12:20:49.669Z,9.70
2022-11-29T12:23:18.410Z,9.70
2022-11-29T12:26:19.286Z,9.70
2022-11-29T12:28:51.883Z,9.80
2022-11-29T12:31:19.615Z,9.80
2022-11-29T12:34:02.956Z,9.90
2022-11-29T12:37:08.368Z,9.90
2022-11-29T12:39:57.453Z,9.90
2022-11-29T12:43:18.845Z,10.00
2022-11-29T12:45:59.014Z,10.00
2022-11-29T12:48:57.559Z,10.10
2022-11-29T12:51:32.263Z,10.20
2022-11-29T12:54:23.579Z,10.20
2022-11-29T12:57:22.532Z,10.10
2022-11-29T13:00:11.330Z,10.10
2022-11-29T13:03:20.258Z,10.10
2022-11-29T13:06:25.562Z,10.10
2022-11-29T13:09:22.742Z,10.00
2022-11-29T13:11:58.790Z,9.90
2022-11-29T13:14:46.661Z,9.80
2022-11-29T13:17:49.502Z,9.80
2022-11-29T13:24:10.256Z,9.70
2022-11-29T13:26:50.071Z,9.70
2022-11-29T13:38:30.504Z,9.50
2022-11-29T13:41:20.774Z,9.50
2022-11-29T13:43:57.761Z,9.50
2022-11-29T13:46:52.588Z,9.50
2022-11-29T13:49:22.746Z,9.50
2022-11-29T13:52:04.913Z,9.50
2022-11-29T13:54:33.854Z,9.40
2022-11-29T13:57:08.152Z,9.50
2022-11-29T13:59:47.406Z,9.40
2022-11-29T14:02:34.090Z,9.40
2022-11-29T14:05:01.836Z,9.40
2022-11-29T14:07:29.549Z,9.40
2022-11-29T14:10:16.253Z,9.40
2022-11-29T14:12:50.534Z,9.40
2022-11-29T14:15:33.649Z,9.40
2022-11-29T14:18:03.961Z,9.40
2022-11-29T14:20:32.372Z,9.30
2022-11-29T14:23:07.695Z,9.40
2022-11-29T14:25:53.121Z,9.40
2022-11-29T14:28:24.327Z,9.40
2022-11-29T14:31:04.330Z,9.40
2022-11-29T14:33:48.273Z,9.30
2022-11-29T14:36:18.626Z,9.30
2022-11-29T14:42:01.286Z,9.40
2022-11-29T14:45:26.392Z,9.40
2022-11-29T14:52:32.213Z,9.40
2022-11-29T14:55:19.934Z,9.40
2022-11-29T14:57:47.833Z,9.40
2022-11-29T15:00:21.713Z,9.40
2022-11-29T15:03:01.878Z,9.40
2022-11-29T15:05:43.261Z,9.40
2022-11-29T15:08:35.323Z,9.40
2022-11-29T15:11:26.058Z,9.40
2022-11-29T15:14:02.209Z,9.40
2022-11-29T15:16:45.140Z,9.40
2022-11-29T15:19:31.123Z,9.30
2022-11-29T15:22:17.996Z,9.30
2022-11-29T15:24:56.930Z,9.40
2022-11-29T15:27:24.775Z,9.30
2022-11-29T15:30:31.097Z,9.30
2022-11-29T15:33:02.527Z,9.30
2022-11-29T15:36:22.583Z,9.30
2022-11-29T15:39:37.073Z,9.30
2022-11-29T15:42:38.093Z,9.20
2022-11-29T15:45:42.492Z,9.20
2022-11-29T15:51:55.867Z,9.10
2022-11-29T15:54:44.410Z,9.10
2022-11-29T15:57:12.200Z,9.00
2022-11-29T16:00:04.941Z,9.00
2022-11-29T16:06:48.360Z,8.80
2022-11-29T16:09:58.101Z,8.70
2022-11-29T16:13:03.306Z,8.70
2022-11-29T16:15:46.400Z,8.70
2022-11-29T16:18:37.250Z,8.70
2022-11-29T16:24:35.356Z,8.70
2022-11-29T16:30:42.383Z,8.70
2022-11-29T16:33:24.681Z,8.60
2022-11-29T16:36:04.158Z,8.60
2022-11-29T16:38:32.007Z,8.50
2022-11-29T16:41:24.422Z,8.50
2022-11-29T16:43:55.284Z,8.50
2022-11-29T16:46:25.142Z,8.50
2022-11-29T16:48:56.247Z,8.50
2022-11-29T16:51:37.532Z,8.50
2022-11-29T16:54:20.845Z,8.60
2022-11-29T16:56:50.078Z,8.60
2022-11-29T16:59:26.622Z,8.60
2022-11-29T17:01:56.823Z,8.50
2022-11-29T17:04:25.834Z,8.50
2022-11-29T17:06:55.951Z,8.40
2022-11-29T17:12:48.183Z,8.40
2022-11-29T17:15:21.478Z,8.30
2022-11-29T17:17:49.123Z,8.30
2022-11-29T17:20:16.812Z,8.20
2022-11-29T17:22:45.702Z,8.20
2022-11-29T17:25:16.098Z,8.20
2022-11-29T17:27:49.353Z,8.20
2022-11-29T17:30:19.908Z,8.20
2022-11-29T17:32:53.768Z,8.10
2022-11-29T17:35:27.509Z,8.10
2022-11-29T17:37:55.147Z,8.00
2022-11-29T17:40:22.758Z,7.90
2022-11-29T17:42:50.820Z,8.10
2022-11-29T17:45:18.473Z,8.10
2022-11-29T17:47:46.109Z,8.00
2022-11-29T17:50:13.675Z,8.00
2022-11-29T17:52:41.586Z,8.00
2022-11-29T17:55:09.682Z,8.10
2022-11-29T17:57:37.245Z,8.10
2022-11-29T18:00:06.669Z,8.10
2022-11-29T18:02:34.762Z,8.00
2022-11-29T18:05:02.370Z,8.00
2022-11-29T18:07:29.977Z,8.00
2022-11-29T18:09:57.627Z,8.00
2022-11-29T18:12:25.188Z,7.90
2022-11-29T18:14:52.815Z,7.90
2022-11-29T18:17:20.339Z,7.90
2022-11-29T18:19:50.839Z,7.90
2022-11-29T18:22:18.443Z,7.90
2022-11-29T18:24:46.120Z,7.80
2022-11-29T18:27:13.684Z,7.80
2022-11-29T18:29:41.300Z,7.80
2022-11-29T18:32:08.966Z,7.80
2022-11-29T18:34:41.081Z,7.90
2022-11-29T18:37:20.072Z,7.90
2022-11-29T18:39:57.017Z,7.80
2022-11-29T18:42:24.549Z,7.80
2022-11-29T18:44:55.984Z,7.80
2022-11-29T18:47:26.533Z,7.70
2022-11-29T18:49:54.105Z,7.70
2022-11-29T18:52:21.699Z,7.70
2022-11-29T18:54:49.266Z,7.70
2022-11-29T18:57:16.809Z,7.60
2022-11-29T18:59:44.400Z,7.60
2022-11-29T19:02:12.391Z,7.60
2022-11-29T19:04:40.013Z,7.60
2022-11-29T19:07:07.569Z,7.60
2022-11-29T19:09:35.133Z,7.60
2022-11-29T19:12:03.742Z,7.60
2022-11-29T19:14:32.267Z,7.50
2022-11-29T19:17:00.034Z,7.50
2022-11-29T19:19:27.549Z,7.50
2022-11-29T19:21:55.147Z,7.50
2022-11-29T19:24:22.758Z,7.40
2022-11-29T19:26:50.430Z,7.40
2022-11-29T19:29:18.279Z,7.40
2022-11-29T19:31:45.987Z,7.40
2022-11-29T19:34:14.099Z,7.40
2022-11-29T19:36:45.599Z,7.40
2022-11-29T19:39:16.454Z,7.30
2022-11-29T19:41:46.265Z,7.30
2022-11-29T19:44:14.280Z,7.30
2022-11-29T19:46:45.489Z,7.20
2022-11-29T19:49:13.127Z,7.30
2022-11-29T19:51:41.050Z,7.30
2022-11-29T19:54:10.515Z,7.30
2022-11-29T19:56:38.940Z,7.30
2022-11-29T19:59:08.843Z,7.30
2022-11-29T20:01:41.332Z,7.30
2022-11-29T20:04:12.661Z,7.30
2022-11-29T20:06:46.390Z,7.30
2022-11-29T20:09:14.162Z,7.40
2022-11-29T20:11:43.626Z,7.30
2022-11-29T20:14:13.950Z,7.40
2022-11-29T20:16:43.108Z,7.40
2022-11-29T20:19:16.391Z,7.50
2022-11-29T20:21:47.684Z,7.40
2022-11-29T20:24:18.606Z,7.40
2022-11-29T20:26:47.931Z,7.40
2022-11-29T20:29:16.839Z,7.40
2022-11-29T20:31:50.009Z,7.40
2022-11-29T20:34:18.744Z,7.40
2022-11-29T20:37:12.847Z,7.40
2022-11-29T20:39:58.917Z,7.50
2022-11-29T20:42:29.494Z,7.50
2022-11-29T20:44:59.256Z,7.60
2022-11-29T20:47:32.666Z,7.60
2022-11-29T20:50:00.532Z,7.60
2022-11-29T20:52:40.359Z,7.60
2022-11-29T20:55:08.821Z,7.60
2022-11-29T20:57:38.316Z,7.60
2022-11-29T21:00:11.246Z,7.70
2022-11-29T21:02:39.182Z,7.70
2022-11-29T21:05:07.196Z,7.60
2022-11-29T21:07:34.971Z,7.70
2022-11-29T21:10:02.761Z,7.60
2022-11-29T21:12:31.575Z,7.60
2022-11-29T21:14:59.509Z,7.60
2022-11-29T21:17:33.161Z,7.60
2022-11-29T21:20:01.598Z,7.60
2022-11-29T21:22:42.406Z,7.60
2022-11-29T21:25:23.672Z,7.50
2022-11-29T21:27:54.550Z,7.50
2022-11-29T21:30:24.863Z,7.50
2022-11-29T21:32:54.961Z,7.40
2022-11-29T21:35:22.541Z,7.50
2022-11-29T21:37:53.489Z,7.40
2022-11-29T21:40:21.212Z,7.40
2022-11-29T21:42:48.726Z,7.40
2022-11-29T21:45:16.494Z,7.50
2022-11-29T21:47:44.649Z,7.50
2022-11-29T21:50:13.335Z,7.50
2022-11-29T21:52:41.018Z,7.40
2022-11-29T21:55:09.011Z,7.40
2022-11-29T21:57:37.584Z,7.40
2022-11-29T22:00:06.101Z,7.40
2022-11-29T22:02:33.758Z,7.50
2022-11-29T22:05:01.420Z,7.50
2022-11-29T22:07:29.082Z,7.40
2022-11-29T22:09:56.773Z,7.40
2022-11-29T22:12:34.068Z,7.40
2022-11-29T22:15:02.029Z,7.40
2022-11-29T22:17:29.569Z,7.40
2022-11-29T22:19:57.142Z,7.50
2022-11-29T22:22:27.958Z,7.40
2022-11-29T22:24:55.937Z,7.50
2022-11-29T22:27:23.516Z,7.50
2022-11-29T22:29:51.097Z,7.50
2022-11-29T22:32:18.676Z,7.50
2022-11-29T22:34:46.533Z,7.50
2022-11-29T22:37:14.217Z,7.50
2022-11-29T22:39:41.821Z,7.50
2022-11-29T22:42:09.385Z,7.50
2022-11-29T22:44:36.963Z,7.40
2022-11-29T22:47:12.007Z,7.40
2022-11-29T22:49:39.541Z,7.50
2022-11-29T22:52:07.426Z,7.50
2022-11-29T22:54:34.991Z,7.50
2022-11-29T22:57:02.553Z,7.60
2022-11-29T22:59:30.148Z,7.60
2022-11-29T23:01:57.721Z,7.60
2022-11-29T23:04:25.309Z,7.60
2022-11-29T23:06:52.865Z,7.60
2022-11-29T23:09:22.421Z,7.70
2022-11-29T23:11:52.763Z,7.70
2022-11-29T23:14:20.905Z,7.70
2022-11-29T23:16:49.016Z,7.70
2022-11-29T23:19:17.269Z,7.70
2022-11-29T23:21:46.107Z,7.70
2022-11-29T23:24:14.956Z,7.70
2022-11-29T23:26:47.320Z,7.70
2022-11-29T23:29:17.784Z,7.70
2022-11-29T23:31:46.637Z,7.70
2022-11-29T23:34:14.564Z,7.80
2022-11-29T23:36:42.167Z,7.80
2022-11-29T23:39:09.954Z,7.80
2022-11-29T23:41:37.661Z,7.80
2022-11-29T23:44:06.083Z,7.80
2022-11-29T23:46:35.599Z,7.80
2022-11-29T23:49:03.660Z,7.80
2022-11-29T23:51:31.198Z,7.80
2022-11-29T23:53:58.930Z,7.80
2022-11-29T23:56:26.509Z,7.80
2022-11-29T23:58:54.082Z,7.80
